createdAt,value
2022-08-14T00:01:58.238Z,27.88
2022-08-14T00:04:36.126Z,27.60
2022-08-14T00:07:11.307Z,27.48
2022-08-14T00:09:56.281Z,26.85
2022-08-14T00:12:33.562Z,23.70
2022-08-14T00:15:15.173Z,23.83
2022-08-14T00:17:47.214Z,24.10
2022-08-14T00:20:23.655Z,24.63
2022-08-14T00:22:58.385Z,24.52
2022-08-14T00:25:41.443Z,26.17
2022-08-14T00:28:15.048Z,25.92
2022-08-14T00:30:42.935Z,24.67
2022-08-14T00:33:16.205Z,25.02
2022-08-14T00:36:36.496Z,29.67
2022-08-14T00:38:31.994Z,27.45
2022-08-14T00:41:01.712Z,27.92
2022-08-14T00:43:32.115Z,25.92
2022-08-14T00:46:03.048Z,26.38
2022-08-14T00:48:34.881Z,26.33
2022-08-14T00:51:10.487Z,27.92
2022-08-14T00:53:40.076Z,26.80
2022-08-14T00:56:10.978Z,27.10
2022-08-14T00:58:45.192Z,24.45
2022-08-14T01:01:17.210Z,23.77
2022-08-14T01:03:44.878Z,25.13
2022-08-14T01:06:16.993Z,26.88
2022-08-14T01:08:57.907Z,25.42
2022-08-14T01:11:35.693Z,26.98
2022-08-14T01:14:18.214Z,25.88
2022-08-14T01:16:53.209Z,25.10
2022-08-14T01:19:41.553Z,24.80
2022-08-14T01:22:12.619Z,25.70
2022-08-14T01:24:41.406Z,26.30
2022-08-14T01:27:19.094Z,26.02
2022-08-14T01:30:00.744Z,24.25
2022-08-14T01:32:44.837Z,23.48
2022-08-14T01:35:18.974Z,25.48
2022-08-14T01:37:58.736Z,25.17
2022-08-14T01:40:36.307Z,25.48
2022-08-14T01:43:18.878Z,25.02
2022-08-14T01:46:05.886Z,24.95
2022-08-14T01:48:37.586Z,24.08
2022-08-14T01:51:19.037Z,24.37
2022-08-14T01:56:39.311Z,22.67
2022-08-14T01:59:09.724Z,20.75
2022-08-14T02:01:37.996Z,19.05
2022-08-14T02:04:20.579Z,19.90
2022-08-14T02:06:56.575Z,17.05
2022-08-14T02:09:23.747Z,17.63
2022-08-14T02:11:54.706Z,18.35
2022-08-14T02:14:31.362Z,17.52
2022-08-14T02:17:00.251Z,16.98
2022-08-14T02:19:31.570Z,18.40
2022-08-14T02:24:39.592Z,18.15
2022-08-14T02:28:24.614Z,17.92
2022-08-14T02:30:01.237Z,18.05
2022-08-14T02:32:36.312Z,17.00
2022-08-14T02:35:16.576Z,17.70
2022-08-14T02:37:47.957Z,15.55
2022-08-14T02:40:20.032Z,18.25
2022-08-14T02:42:54.062Z,18.48
2022-08-14T02:45:22.312Z,22.88
2022-08-14T02:47:49.767Z,26.08
2022-08-14T02:50:27.060Z,27.08
2022-08-14T02:53:05.717Z,29.30
2022-08-14T02:55:36.027Z,31.50
2022-08-14T02:58:05.985Z,30.20
2022-08-14T03:00:39.911Z,32.50
2022-08-14T03:03:07.975Z,31.58
2022-08-14T03:05:36.153Z,33.28
2022-08-14T03:08:09.097Z,32.45
2022-08-14T03:10:41.907Z,33.45
2022-08-14T03:13:19.756Z,34.03
2022-08-14T03:15:55.116Z,34.63
2022-08-14T03:18:31.360Z,37.28
2022-08-14T03:21:05.859Z,36.45
2022-08-14T03:23:38.121Z,36.70
2022-08-14T03:26:18.377Z,37.50
2022-08-14T03:28:56.679Z,35.58
2022-08-14T03:31:29.453Z,39.05
2022-08-14T03:34:00.023Z,39.13
2022-08-14T03:37:38.207Z,39.45
2022-08-14T03:39:22.510Z,40.50
2022-08-14T03:41:54.831Z,41.17
2022-08-14T03:45:26.173Z,39.60
2022-08-14T03:47:09.178Z,39.78
2022-08-14T03:49:42.583Z,38.88
2022-08-14T03:52:28.032Z,38.90
2022-08-14T03:54:56.284Z,40.58
2022-08-14T03:57:23.815Z,40.15
2022-08-14T03:59:50.927Z,38.47
2022-08-14T04:02:32.260Z,35.92
2022-08-14T04:05:08.101Z,38.58
2022-08-14T04:07:39.271Z,36.20
2022-08-14T04:10:17.415Z,35.42
2022-08-14T04:12:51.346Z,36.25
2022-08-14T04:15:21.233Z,36.67
2022-08-14T04:17:50.230Z,37.13
2022-08-14T04:20:25.460Z,38.13
2022-08-14T04:22:55.579Z,35.40
2022-08-14T04:25:22.604Z,36.63
2022-08-14T04:28:02.308Z,35.10
2022-08-14T04:30:32.987Z,34.38
2022-08-14T04:33:06.446Z,33.33
2022-08-14T04:35:55.430Z,35.38
2022-08-14T04:38:41.332Z,34.58
2022-08-14T04:41:30.597Z,38.10
2022-08-14T04:43:57.924Z,34.60
2022-08-14T04:46:55.180Z,38.20
2022-08-14T04:49:15.105Z,39.30
2022-08-14T04:51:46.639Z,40.60
2022-08-14T04:54:13.877Z,36.75
2022-08-14T04:56:43.291Z,31.00
2022-08-14T04:59:12.020Z,27.08
2022-08-14T05:01:50.029Z,24.88
2022-08-14T05:04:23.020Z,21.80
2022-08-14T05:06:55.179Z,22.90
2022-08-14T05:09:23.840Z,20.73
2022-08-14T05:11:51.499Z,20.48
2022-08-14T05:14:45.296Z,18.88
2022-08-14T05:17:06.813Z,17.83
2022-08-14T05:19:33.791Z,18.33
2022-08-14T05:22:16.640Z,18.00
2022-08-14T05:24:49.585Z,16.88
2022-08-14T05:27:19.905Z,18.85
2022-08-14T05:29:50.330Z,17.92
2022-08-14T05:32:17.089Z,18.33
2022-08-14T05:34:45.813Z,19.40
2022-08-14T05:37:13.219Z,17.20
2022-08-14T05:39:43.006Z,17.23
2022-08-14T05:42:21.940Z,17.52
2022-08-14T05:44:55.422Z,16.25
2022-08-14T05:47:23.207Z,16.80
2022-08-14T05:49:51.406Z,17.65
2022-08-14T05:52:18.727Z,16.05
2022-08-14T05:54:53.222Z,16.02
2022-08-14T05:57:20.775Z,15.32
2022-08-14T05:59:48.177Z,15.05
2022-08-14T06:02:14.788Z,12.57
2022-08-14T06:04:49.405Z,12.88
2022-08-14T06:07:16.571Z,12.73
2022-08-14T06:09:43.714Z,10.48
2022-08-14T06:12:31.685Z,11.48
2022-08-14T06:15:08.053Z,10.63
2022-08-14T06:18:03.992Z,10.27
2022-08-14T06:20:31.111Z,10.73
2022-08-14T06:22:59.191Z,10.00
2022-08-14T06:25:26.935Z,10.82
2022-08-14T06:27:54.590Z,10.30
2022-08-14T06:30:30.487Z,8.90
2022-08-14T06:33:11.165Z,7.53
2022-08-14T06:35:37.776Z,8.18
2022-08-14T06:38:05.117Z,7.55
2022-08-14T06:40:42.841Z,7.65
2022-08-14T06:43:11.547Z,6.75
2022-08-14T06:45:43.424Z,8.02
2022-08-14T06:48:21.763Z,6.90
2022-08-14T06:50:48.771Z,7.80
2022-08-14T06:53:19.791Z,7.25
2022-08-14T06:55:57.978Z,7.07
2022-08-14T06:58:29.256Z,7.53
2022-08-14T07:01:20.580Z,7.85
2022-08-14T07:04:22.810Z,7.75
2022-08-14T07:06:55.522Z,7.78
2022-08-14T07:09:23.257Z,8.43
2022-08-14T07:11:51.809Z,7.88
2022-08-14T07:14:18.529Z,7.40
2022-08-14T07:16:45.190Z,7.18
2022-08-14T07:19:12.112Z,7.03
2022-08-14T07:21:39.738Z,6.63
2022-08-14T07:24:09.607Z,6.50
2022-08-14T07:26:49.038Z,6.78
2022-08-14T07:29:15.708Z,6.40
2022-08-14T07:31:44.375Z,6.55
2022-08-14T07:34:11.450Z,6.97
2022-08-14T07:36:38.228Z,7.10
2022-08-14T07:39:27.569Z,7.60
2022-08-14T07:41:54.480Z,8.65
2022-08-14T07:44:32.530Z,10.10
2022-08-14T07:47:07.926Z,8.45
2022-08-14T07:49:35.861Z,8.60
2022-08-14T07:52:04.076Z,9.93
2022-08-14T07:54:31.609Z,8.35
2022-08-14T07:56:59.745Z,8.50
2022-08-14T07:59:41.433Z,7.68
2022-08-14T08:02:19.674Z,6.95
2022-08-14T08:04:55.168Z,6.80
2022-08-14T08:07:30.044Z,7.00
2022-08-14T08:09:59.686Z,6.72
2022-08-14T08:12:31.220Z,6.80
2022-08-14T08:15:02.949Z,7.30
2022-08-14T08:17:34.837Z,7.47
2022-08-14T08:20:11.639Z,5.75
2022-08-14T08:22:40.914Z,6.57
2022-08-14T08:25:13.777Z,5.18
2022-08-14T08:27:44.688Z,5.55
2022-08-14T08:30:12.357Z,4.68
2022-08-14T08:32:41.406Z,4.97
2022-08-14T08:35:46.657Z,4.63
2022-08-14T08:39:15.335Z,4.80
2022-08-14T08:41:11.356Z,4.88
2022-08-14T08:43:39.400Z,4.95
2022-08-14T08:46:21.279Z,4.35
2022-08-14T08:51:43.113Z,4.82
2022-08-14T08:54:18.535Z,4.22
2022-08-14T08:56:52.447Z,4.45
2022-08-14T08:59:31.124Z,4.60
2022-08-14T09:02:10.584Z,3.95
2022-08-14T09:04:45.393Z,4.20
2022-08-14T09:07:31.172Z,4.00
2022-08-14T09:09:59.293Z,4.10
2022-08-14T09:12:33.446Z,3.65
2022-08-14T09:15:11.647Z,4.15
2022-08-14T09:17:41.335Z,3.70
2022-08-14T09:20:11.526Z,3.67
2022-08-14T09:22:47.237Z,3.58
2022-08-14T09:25:15.934Z,3.47
2022-08-14T09:27:43.144Z,3.80
2022-08-14T09:30:31.748Z,3.08
2022-08-14T09:33:10.822Z,3.53
2022-08-14T09:36:14.323Z,2.50
2022-08-14T09:39:07.129Z,2.83
2022-08-14T09:42:21.139Z,3.05
2022-08-14T09:44:40.393Z,2.15
2022-08-14T09:47:14.674Z,2.38
2022-08-14T09:49:52.201Z,2.50
2022-08-14T09:52:32.834Z,2.63
2022-08-14T09:55:01.345Z,3.22
2022-08-14T09:57:31.305Z,2.30
2022-08-14T09:59:59.032Z,3.25
2022-08-14T10:02:44.068Z,2.55
2022-08-14T10:05:13.232Z,3.60
2022-08-14T10:07:53.759Z,2.90
2022-08-14T10:10:34.551Z,2.90
2022-08-14T10:13:03.176Z,2.70
2022-08-14T10:15:32.391Z,2.15
2022-08-14T10:18:09.499Z,4.50
2022-08-14T10:21:09.502Z,2.70
2022-08-14T10:23:47.803Z,3.15
2022-08-14T10:26:22.863Z,6.22
2022-08-14T10:29:18.097Z,4.25
2022-08-14T10:31:45.749Z,3.08
2022-08-14T10:34:18.574Z,3.58
2022-08-14T10:36:50.040Z,3.00
2022-08-14T10:39:27.749Z,3.38
2022-08-14T10:42:16.728Z,3.17
2022-08-14T10:44:49.068Z,2.60
2022-08-14T10:47:39.094Z,2.97
2022-08-14T10:50:12.035Z,3.47
2022-08-14T10:52:43.115Z,10.65
2022-08-14T10:55:16.133Z,2.40
2022-08-14T10:57:51.313Z,2.72
2022-08-14T11:00:29.543Z,2.20
2022-08-14T11:03:26.410Z,2.47
2022-08-14T11:05:55.911Z,2.75
2022-08-14T11:08:33.898Z,2.08
2022-08-14T11:11:03.747Z,2.50
2022-08-14T11:13:31.760Z,2.40
2022-08-14T11:16:01.755Z,2.70
2022-08-14T11:18:36.075Z,2.38
2022-08-14T11:21:06.977Z,2.88
2022-08-14T11:23:43.680Z,4.68
2022-08-14T11:26:13.742Z,2.22
2022-08-14T11:28:47.398Z,2.17
2022-08-14T11:31:20.445Z,3.25
2022-08-14T11:33:55.490Z,2.67
2022-08-14T11:36:57.296Z,2.53
2022-08-14T11:39:33.690Z,2.55
2022-08-14T11:42:55.289Z,2.35
2022-08-14T11:44:53.798Z,2.67
2022-08-14T11:47:23.846Z,2.60
2022-08-14T11:49:51.939Z,2.67
2022-08-14T11:52:21.860Z,2.35
2022-08-14T11:54:58.886Z,2.53
2022-08-14T11:57:25.669Z,2.78
2022-08-14T12:00:10.698Z,2.40
2022-08-14T12:03:02.483Z,2.50
2022-08-14T12:05:43.158Z,2.53
2022-08-14T12:08:13.562Z,2.65
2022-08-14T12:10:43.927Z,3.00
2022-08-14T12:13:12.355Z,2.90
2022-08-14T12:15:44.682Z,2.63
2022-08-14T12:18:19.506Z,3.78
2022-08-14T12:20:52.878Z,2.40
2022-08-14T12:23:27.597Z,3.00
2022-08-14T12:26:31.903Z,2.08
2022-08-14T12:28:59.951Z,2.30
2022-08-14T12:31:44.170Z,2.38
2022-08-14T12:34:20.705Z,2.80
2022-08-14T12:37:04.097Z,7.60
2022-08-14T12:39:30.864Z,3.95
2022-08-14T12:42:07.925Z,2.20
2022-08-14T12:44:42.613Z,3.75
2022-08-14T12:47:15.008Z,3.90
2022-08-14T12:49:52.996Z,2.95
2022-08-14T12:52:45.192Z,3.42
2022-08-14T12:55:32.775Z,3.13
2022-08-14T12:58:35.442Z,2.47
2022-08-14T13:01:16.899Z,3.00
2022-08-14T13:03:45.645Z,3.47
2022-08-14T13:06:14.602Z,4.40
2022-08-14T13:08:52.686Z,3.83
2022-08-14T13:11:23.932Z,3.38
2022-08-14T13:13:58.645Z,4.05
2022-08-14T13:16:37.797Z,4.10
2022-08-14T13:19:05.816Z,4.45
2022-08-14T13:22:05.825Z,5.47
2022-08-14T13:24:27.965Z,3.30
2022-08-14T13:26:58.327Z,3.60
2022-08-14T13:29:29.733Z,3.42
2022-08-14T13:31:58.645Z,3.72
2022-08-14T13:34:29.583Z,3.00
2022-08-14T13:37:03.797Z,5.18
2022-08-14T13:39:36.003Z,3.63
2022-08-14T13:42:13.421Z,3.28
2022-08-14T13:44:42.512Z,2.70
2022-08-14T13:47:12.083Z,5.28
2022-08-14T13:49:57.505Z,3.90
2022-08-14T13:52:59.160Z,3.85
2022-08-14T13:55:18.146Z,3.08
2022-08-14T14:00:32.702Z,3.70
2022-08-14T14:03:08.651Z,3.83
2022-08-14T14:05:52.548Z,5.25
2022-08-14T14:08:46.382Z,4.43
2022-08-14T14:11:16.547Z,5.53
2022-08-14T14:13:46.014Z,6.55
2022-08-14T14:16:21.716Z,5.43
2022-08-14T14:18:56.038Z,4.80
2022-08-14T14:21:28.704Z,3.08
2022-08-14T14:23:57.006Z,3.60
2022-08-14T14:26:24.772Z,4.43
2022-08-14T14:28:56.578Z,4.53
2022-08-14T14:31:30.287Z,5.57
2022-08-14T14:34:07.319Z,4.72
2022-08-14T14:36:50.124Z,5.70
2022-08-14T14:39:23.431Z,5.63
2022-08-14T14:41:56.237Z,8.38
2022-08-14T14:44:32.742Z,4.53
2022-08-14T14:47:00.357Z,4.00
2022-08-14T14:49:42.160Z,4.22
2022-08-14T14:52:26.696Z,4.40
2022-08-14T14:54:59.069Z,6.10
2022-08-14T14:57:35.202Z,4.72
2022-08-14T15:00:08.696Z,4.68
2022-08-14T15:02:42.107Z,4.80
2022-08-14T15:05:10.579Z,4.28
2022-08-14T15:07:39.952Z,5.85
2022-08-14T15:10:27.480Z,6.85
2022-08-14T15:12:56.238Z,6.95
2022-08-14T15:15:23.725Z,5.82
2022-08-14T15:17:50.404Z,5.85
2022-08-14T15:20:31.028Z,5.75
2022-08-14T15:23:01.093Z,8.23
2022-08-14T15:25:40.205Z,5.88
2022-08-14T15:28:12.653Z,5.38
2022-08-14T15:30:44.602Z,5.97
2022-08-14T15:35:45.061Z,4.10
2022-08-14T15:40:44.977Z,5.15
2022-08-14T15:43:18.483Z,4.70
2022-08-14T15:45:45.145Z,3.67
2022-08-14T15:48:18.442Z,4.20
2022-08-14T15:50:50.858Z,3.53
2022-08-14T15:53:18.430Z,4.28
2022-08-14T15:55:46.571Z,3.42
2022-08-14T15:58:14.877Z,3.22
2022-08-14T16:00:59.873Z,3.65
2022-08-14T16:03:36.516Z,3.28
2022-08-14T16:06:11.023Z,4.03
2022-08-14T16:08:43.905Z,3.30
2022-08-14T16:11:12.377Z,4.78
2022-08-14T16:13:45.601Z,3.75
2022-08-14T16:16:35.069Z,5.90
2022-08-14T16:19:07.256Z,3.95
2022-08-14T16:21:35.896Z,4.22
2022-08-14T16:24:05.508Z,3.28
2022-08-14T16:26:34.075Z,3.80
2022-08-14T16:29:15.501Z,2.85
2022-08-14T16:31:43.809Z,3.75
2022-08-14T16:36:58.976Z,3.97
2022-08-14T16:39:25.791Z,4.07
2022-08-14T16:41:58.556Z,4.15
2022-08-14T16:44:33.678Z,4.38
2022-08-14T16:47:03.079Z,3.85
2022-08-14T16:50:04.348Z,3.25
2022-08-14T16:52:25.912Z,3.78
2022-08-14T16:55:09.310Z,3.55
2022-08-14T16:57:54.444Z,3.20
2022-08-14T17:00:43.055Z,3.50
2022-08-14T17:03:12.868Z,3.10
2022-08-14T17:05:43.466Z,2.50
2022-08-14T17:08:32.343Z,2.85
2022-08-14T17:11:11.020Z,2.90
2022-08-14T17:13:58.677Z,2.85
2022-08-14T17:16:29.997Z,2.88
2022-08-14T17:19:00.825Z,6.97
2022-08-14T17:21:40.873Z,3.40
2022-08-14T17:24:56.787Z,4.80
2022-08-14T17:27:04.285Z,7.50
2022-08-14T17:29:56.082Z,5.55
2022-08-14T17:32:44.374Z,2.58
2022-08-14T17:35:57.394Z,2.50
2022-08-14T17:38:39.292Z,4.30
2022-08-14T17:44:46.167Z,4.85
2022-08-14T17:47:17.788Z,4.43
2022-08-14T17:49:51.867Z,3.17
2022-08-14T17:52:34.414Z,9.90
2022-08-14T17:55:10.166Z,2.95
2022-08-14T17:57:46.986Z,3.90
2022-08-14T18:00:27.005Z,5.30
2022-08-14T18:03:08.197Z,7.20
2022-08-14T18:06:09.898Z,5.77
2022-08-14T18:08:44.813Z,6.68
2022-08-14T18:11:16.906Z,6.28
2022-08-14T18:13:50.746Z,4.72
2022-08-14T18:16:20.382Z,4.95
2022-08-14T18:18:50.038Z,5.80
2022-08-14T18:21:23.809Z,5.38
2022-08-14T18:24:28.572Z,4.32
2022-08-14T18:27:01.583Z,4.40
2022-08-14T18:29:31.663Z,3.65
2022-08-14T18:31:58.823Z,4.82
2022-08-14T18:34:37.610Z,3.33
2022-08-14T18:37:17.407Z,3.90
2022-08-14T18:40:01.798Z,5.57
2022-08-14T18:42:33.326Z,4.88
2022-08-14T18:45:01.869Z,4.05
2022-08-14T18:47:40.345Z,7.55
2022-08-14T18:50:27.935Z,4.85
2022-08-14T18:53:07.149Z,9.00
2022-08-14T18:55:33.992Z,4.90
2022-08-14T18:58:00.940Z,5.93
2022-08-14T19:00:32.725Z,5.10
2022-08-14T19:03:00.253Z,4.72
2022-08-14T19:05:47.702Z,8.63
2022-08-14T19:08:17.860Z,5.32
2022-08-14T19:10:49.959Z,3.55
2022-08-14T19:13:47.999Z,10.95
2022-08-14T19:16:23.291Z,6.30
2022-08-14T19:19:01.349Z,4.82
2022-08-14T19:21:34.436Z,5.38
2022-08-14T19:24:27.561Z,6.93
2022-08-14T19:27:23.542Z,5.97
2022-08-14T19:30:19.830Z,4.20
2022-08-14T19:32:51.113Z,4.57
2022-08-14T19:35:22.780Z,5.43
2022-08-14T19:37:56.243Z,5.40
2022-08-14T19:40:39.970Z,5.97
2022-08-14T19:43:09.271Z,5.25
2022-08-14T19:45:38.069Z,6.07
2022-08-14T19:48:12.602Z,3.92
2022-08-14T19:50:41.176Z,4.57
2022-08-14T19:53:17.291Z,5.88
2022-08-14T19:55:58.804Z,4.32
2022-08-14T19:58:55.360Z,6.13
2022-08-14T20:01:36.646Z,4.05
2022-08-14T20:04:08.164Z,4.38
2022-08-14T20:06:55.231Z,3.67
2022-08-14T20:11:04.630Z,5.72
2022-08-14T20:12:35.452Z,4.80
2022-08-14T20:15:15.574Z,6.10
2022-08-14T20:17:52.915Z,5.85
2022-08-14T20:20:31.551Z,4.93
2022-08-14T20:23:11.631Z,5.55
2022-08-14T20:25:56.643Z,4.85
2022-08-14T20:28:32.475Z,4.93
2022-08-14T20:31:20.261Z,6.60
2022-08-14T20:34:24.723Z,5.10
2022-08-14T20:37:09.750Z,6.18
2022-08-14T20:39:54.299Z,5.38
2022-08-14T20:42:43.677Z,4.95
2022-08-14T20:45:19.697Z,5.72
2022-08-14T20:47:50.656Z,5.13
2022-08-14T20:50:28.380Z,5.40
2022-08-14T20:52:58.306Z,5.82
2022-08-14T20:55:29.882Z,4.70
2022-08-14T20:57:58.874Z,5.88
2022-08-14T21:00:52.671Z,6.35
2022-08-14T21:03:28.805Z,5.20
2022-08-14T21:06:17.225Z,6.07
2022-08-14T21:08:48.572Z,5.00
2022-08-14T21:11:21.240Z,5.10
2022-08-14T21:14:20.436Z,6.43
2022-08-14T21:16:40.986Z,5.88
2022-08-14T21:19:26.248Z,5.07
2022-08-14T21:21:55.599Z,5.82
2022-08-14T21:24:47.537Z,5.07
2022-08-14T21:27:19.605Z,5.28
2022-08-14T21:29:53.904Z,4.93
2022-08-14T21:32:35.134Z,4.72
2022-08-14T21:35:09.046Z,4.60
2022-08-14T21:37:47.847Z,5.25
2022-08-14T21:40:41.715Z,4.47
2022-08-14T21:43:17.425Z,5.30
2022-08-14T21:45:51.907Z,5.20
2022-08-14T21:48:21.731Z,4.43
2022-08-14T21:51:00.388Z,4.35
2022-08-14T21:53:31.359Z,4.93
2022-08-14T21:55:58.509Z,6.05
2022-08-14T21:58:52.546Z,5.15
2022-08-14T22:01:13.390Z,4.82
2022-08-14T22:03:45.088Z,4.57
2022-08-14T22:06:21.048Z,4.40
2022-08-14T22:08:56.247Z,4.95
2022-08-14T22:11:23.317Z,4.90
2022-08-14T22:13:51.876Z,5.47
2022-08-14T22:17:00.720Z,5.38
2022-08-14T22:19:13.754Z,5.63
2022-08-14T22:21:43.936Z,5.35
2022-08-14T22:24:12.720Z,5.72
2022-08-14T22:27:01.929Z,5.10
2022-08-14T22:29:28.971Z,5.50
2022-08-14T22:31:55.828Z,5.00
2022-08-14T22:34:22.901Z,6.63
2022-08-14T22:36:50.609Z,6.35
2022-08-14T22:40:17.235Z,6.00
2022-08-14T22:42:22.968Z,6.10
2022-08-14T22:44:51.561Z,6.20
2022-08-14T22:47:24.645Z,6.03
2022-08-14T22:50:32.127Z,6.40
2022-08-14T22:52:39.579Z,6.53
2022-08-14T22:55:07.460Z,6.88
2022-08-14T22:57:37.383Z,7.43
2022-08-14T23:00:14.808Z,6.93
2022-08-14T23:02:43.375Z,6.43
2022-08-14T23:05:15.181Z,6.53
2022-08-14T23:08:56.207Z,7.15
2022-08-14T23:10:33.722Z,6.32
2022-08-14T23:13:02.243Z,7.25
2022-08-14T23:15:30.148Z,7.18
2022-08-14T23:17:57.792Z,7.22
2022-08-14T23:20:29.260Z,7.72
2022-08-14T23:25:56.792Z,7.35
2022-08-14T23:28:34.445Z,7.68
2022-08-14T23:31:05.588Z,7.85
2022-08-14T23:33:34.679Z,7.45
2022-08-14T23:36:32.710Z,7.10
2022-08-14T23:38:52.066Z,7.35
2022-08-14T23:41:21.235Z,7.10
2022-08-14T23:43:50.546Z,7.43
2022-08-14T23:46:19.203Z,7.85
2022-08-14T23:48:47.042Z,7.30
2022-08-14T23:51:16.603Z,7.03
2022-08-14T23:53:51.545Z,7.80
2022-08-14T23:56:31.898Z,8.52
2022-08-14T23:59:01.231Z,8.70
